createdAt,value
2022-09-07T00:01:05.901Z,26.40
2022-09-07T00:03:34.333Z,26.40
2022-09-07T00:06:07.914Z,26.40
2022-09-07T00:08:35.575Z,26.30
2022-09-07T00:11:07.229Z,26.30
2022-09-07T00:13:37.474Z,26.30
2022-09-07T00:16:11.455Z,26.30
2022-09-07T00:18:42.518Z,26.20
2022-09-07T00:21:14.020Z,26.20
2022-09-07T00:23:41.481Z,26.20
2022-09-07T00:26:14.660Z,26.20
2022-09-07T00:28:43.207Z,26.20
2022-09-07T00:31:13.436Z,26.20
2022-09-07T00:33:41.224Z,26.20
2022-09-07T00:36:08.550Z,26.20
2022-09-07T00:38:36.235Z,26.20
2022-09-07T00:41:03.904Z,26.20
2022-09-07T00:43:34.235Z,26.20
2022-09-07T00:46:03.042Z,26.20
2022-09-07T00:48:59.423Z,26.10
2022-09-07T00:51:35.787Z,26.10
2022-09-07T00:54:10.651Z,26.10
2022-09-07T00:56:41.921Z,26.10
2022-09-07T00:59:10.773Z,26.00
2022-09-07T01:01:39.545Z,26.00
2022-09-07T01:04:08.030Z,26.00
2022-09-07T01:06:37.935Z,26.00
2022-09-07T01:09:18.137Z,26.00
2022-09-07T01:11:51.218Z,25.90
2022-09-07T01:14:25.430Z,25.90
2022-09-07T01:16:55.928Z,25.90
2022-09-07T01:20:08.691Z,25.90
2022-09-07T01:22:48.628Z,25.90
2022-09-07T01:25:35.728Z,25.80
2022-09-07T01:28:29.321Z,25.80
2022-09-07T01:31:03.846Z,25.80
2022-09-07T01:33:37.189Z,25.80
2022-09-07T01:36:10.496Z,25.80
2022-09-07T01:39:00.096Z,25.80
2022-09-07T01:41:44.708Z,25.80
2022-09-07T01:44:27.361Z,25.90
2022-09-07T01:47:23.307Z,25.90
2022-09-07T01:50:01.861Z,25.90
2022-09-07T01:52:41.287Z,25.90
2022-09-07T01:55:14.809Z,25.90
2022-09-07T01:57:58.596Z,25.80
2022-09-07T02:00:26.359Z,25.80
2022-09-07T02:03:06.328Z,25.80
2022-09-07T02:05:58.719Z,25.80
2022-09-07T02:08:28.508Z,25.80
2022-09-07T02:11:05.944Z,25.80
2022-09-07T02:13:45.418Z,25.70
2022-09-07T02:16:42.430Z,25.70
2022-09-07T02:19:16.654Z,25.70
2022-09-07T02:21:54.634Z,25.70
2022-09-07T02:24:26.627Z,25.70
2022-09-07T02:26:56.204Z,25.70
2022-09-07T02:29:25.214Z,25.70
2022-09-07T02:31:54.363Z,25.70
2022-09-07T02:34:22.278Z,25.70
2022-09-07T02:36:52.868Z,25.70
2022-09-07T02:39:20.219Z,25.60
2022-09-07T02:41:48.697Z,25.60
2022-09-07T02:44:23.321Z,25.60
2022-09-07T02:46:53.464Z,25.60
2022-09-07T02:49:44.208Z,25.60
2022-09-07T02:52:33.092Z,25.60
2022-09-07T02:55:29.585Z,25.60
2022-09-07T02:58:46.248Z,25.60
2022-09-07T03:01:32.332Z,25.50
2022-09-07T03:04:14.133Z,25.50
2022-09-07T03:06:44.371Z,25.50
2022-09-07T03:09:19.544Z,25.40
2022-09-07T03:11:47.557Z,25.40
2022-09-07T03:14:18.548Z,25.40
2022-09-07T03:16:50.319Z,25.40
2022-09-07T03:19:18.440Z,25.30
2022-09-07T03:21:47.264Z,25.30
2022-09-07T03:24:14.650Z,25.30
2022-09-07T03:26:45.976Z,25.20
2022-09-07T03:29:13.655Z,25.20
2022-09-07T03:31:41.103Z,25.20
2022-09-07T03:34:08.817Z,25.30
2022-09-07T03:36:36.343Z,25.20
2022-09-07T03:39:04.527Z,25.30
2022-09-07T03:41:32.011Z,25.30
2022-09-07T03:44:06.864Z,25.30
2022-09-07T03:46:34.531Z,25.30
2022-09-07T03:49:02.182Z,25.30
2022-09-07T03:51:29.480Z,25.20
2022-09-07T03:53:57.452Z,25.20
2022-09-07T03:56:25.709Z,25.20
2022-09-07T03:58:55.373Z,25.20
2022-09-07T04:01:24.653Z,25.20
2022-09-07T04:03:52.804Z,25.20
2022-09-07T04:06:20.321Z,25.20
2022-09-07T04:08:47.905Z,25.20
2022-09-07T04:11:18.041Z,25.20
2022-09-07T04:13:47.818Z,25.20
2022-09-07T04:16:26.995Z,25.20
2022-09-07T04:18:59.401Z,25.20
2022-09-07T04:21:31.501Z,25.30
2022-09-07T04:23:59.339Z,25.40
2022-09-07T04:26:34.419Z,25.40
2022-09-07T04:29:03.031Z,25.30
2022-09-07T04:31:30.814Z,25.30
2022-09-07T04:33:58.138Z,25.30
2022-09-07T04:36:25.538Z,25.40
2022-09-07T04:38:58.011Z,25.40
2022-09-07T04:41:25.795Z,25.50
2022-09-07T04:43:59.458Z,25.40
2022-09-07T04:46:35.313Z,25.50
2022-09-07T04:49:05.920Z,25.50
2022-09-07T04:51:33.307Z,25.50
2022-09-07T04:54:03.047Z,25.50
2022-09-07T04:56:31.861Z,25.50
2022-09-07T04:59:01.315Z,25.50
2022-09-07T05:01:29.143Z,25.50
2022-09-07T05:03:56.643Z,25.50
2022-09-07T05:06:24.098Z,25.60
2022-09-07T05:08:54.143Z,25.60
2022-09-07T05:11:28.467Z,25.60
2022-09-07T05:13:58.316Z,25.70
2022-09-07T05:16:26.302Z,25.80
2022-09-07T05:18:57.452Z,25.80
2022-09-07T05:21:28.066Z,25.80
2022-09-07T05:23:57.410Z,25.80
2022-09-07T05:26:27.340Z,25.90
2022-09-07T05:31:42.979Z,26.00
2022-09-07T05:36:58.664Z,26.10
2022-09-07T05:39:27.022Z,26.10
2022-09-07T05:41:54.461Z,26.10
2022-09-07T05:47:10.570Z,26.20
2022-09-07T05:49:37.957Z,26.30
2022-09-07T05:52:05.571Z,26.30
2022-09-07T05:54:33.045Z,26.30
2022-09-07T05:57:00.364Z,26.40
2022-09-07T05:59:27.719Z,26.50
2022-09-07T06:01:55.183Z,26.60
2022-09-07T06:04:23.178Z,26.70
2022-09-07T06:07:11.046Z,26.70
2022-09-07T06:12:26.821Z,26.80
2022-09-07T06:14:54.130Z,26.90
2022-09-07T06:17:21.603Z,27.00
2022-09-07T06:19:48.884Z,27.10
2022-09-07T06:22:16.355Z,27.20
2022-09-07T06:24:43.660Z,27.30
2022-09-07T06:27:11.260Z,27.40
2022-09-07T06:29:38.631Z,27.50
2022-09-07T06:34:53.763Z,27.40
2022-09-07T06:37:21.104Z,27.50
2022-09-07T06:39:49.619Z,27.60
2022-09-07T06:42:16.993Z,27.70
2022-09-07T06:44:44.984Z,27.80
2022-09-07T06:47:12.340Z,27.90
2022-09-07T06:49:39.665Z,28.10
2022-09-07T06:52:07.067Z,28.20
2022-09-07T06:57:21.800Z,28.20
2022-09-07T06:59:49.142Z,28.30
2022-09-07T07:02:17.162Z,28.30
2022-09-07T07:04:44.574Z,28.30
2022-09-07T07:07:15.292Z,28.40
2022-09-07T07:09:42.846Z,28.60
2022-09-07T07:12:11.333Z,28.80
2022-09-07T07:14:43.968Z,29.00
2022-09-07T07:17:13.870Z,29.10
2022-09-07T07:19:41.168Z,29.30
2022-09-07T07:22:23.885Z,29.40
2022-09-07T07:24:56.026Z,29.50
2022-09-07T07:27:23.311Z,29.50
2022-09-07T07:29:50.710Z,29.60
2022-09-07T07:32:18.320Z,29.60
2022-09-07T07:34:45.718Z,29.60
2022-09-07T07:37:12.940Z,29.80
2022-09-07T07:42:27.587Z,30.10
2022-09-07T07:47:43.003Z,30.30
2022-09-07T07:55:45.709Z,30.30
2022-09-07T07:58:13.215Z,30.30
2022-09-07T08:00:56.671Z,30.10
2022-09-07T08:03:25.681Z,29.90
2022-09-07T08:05:54.072Z,30.00
2022-09-07T08:08:23.221Z,30.10
2022-09-07T08:10:50.760Z,30.20
2022-09-07T08:13:18.526Z,30.30
2022-09-07T08:15:46.721Z,30.30
2022-09-07T08:18:16.254Z,30.40
2022-09-07T08:20:43.944Z,30.30
2022-09-07T08:23:11.871Z,30.30
2022-09-07T08:25:39.611Z,30.30
2022-09-07T08:28:06.996Z,30.40
2022-09-07T08:30:34.371Z,30.50
2022-09-07T08:33:01.720Z,30.50
2022-09-07T08:35:29.041Z,30.50
2022-09-07T08:37:59.417Z,30.50
2022-09-07T08:40:26.685Z,30.50
2022-09-07T08:43:02.984Z,30.60
2022-09-07T08:45:48.704Z,30.60
2022-09-07T08:48:21.286Z,30.60
2022-09-07T08:50:54.295Z,30.60
2022-09-07T08:53:23.029Z,30.70
2022-09-07T08:56:05.936Z,30.70
2022-09-07T08:58:51.318Z,30.70
2022-09-07T09:01:34.060Z,30.80
2022-09-07T09:04:18.698Z,30.80
2022-09-07T09:06:46.985Z,31.00
2022-09-07T09:09:35.501Z,31.10
2022-09-07T09:12:19.693Z,31.10
2022-09-07T09:15:04.825Z,31.20
2022-09-07T09:17:46.922Z,31.00
2022-09-07T09:20:43.392Z,31.00
2022-09-07T09:23:16.727Z,31.20
2022-09-07T09:26:15.307Z,31.30
2022-09-07T09:28:43.820Z,31.20
2022-09-07T09:31:20.569Z,31.20
2022-09-07T09:34:06.091Z,31.10
2022-09-07T09:36:40.278Z,31.00
2022-09-07T09:39:29.853Z,31.10
2022-09-07T09:42:01.694Z,31.20
2022-09-07T09:44:34.438Z,31.30
2022-09-07T09:49:53.893Z,31.60
2022-09-07T09:52:29.790Z,31.50
2022-09-07T09:55:17.309Z,31.50
2022-09-07T10:03:58.483Z,31.50
2022-09-07T10:06:28.621Z,31.50
2022-09-07T10:09:02.184Z,31.60
2022-09-07T10:14:47.018Z,31.60
2022-09-07T10:17:34.665Z,31.60
2022-09-07T10:20:16.962Z,31.70
2022-09-07T10:22:53.904Z,31.60
2022-09-07T10:25:37.476Z,31.60
2022-09-07T10:28:14.356Z,31.80
2022-09-07T10:30:44.943Z,32.00
2022-09-07T10:33:42.071Z,31.90
2022-09-07T10:36:55.852Z,32.00
2022-09-07T10:39:28.222Z,32.10
2022-09-07T10:42:14.735Z,32.00
2022-09-07T10:45:06.264Z,31.90
2022-09-07T10:47:52.418Z,31.90
2022-09-07T10:50:52.000Z,32.00
2022-09-07T10:57:11.831Z,32.10
2022-09-07T11:00:07.931Z,32.40
2022-09-07T11:06:03.384Z,32.80
2022-09-07T11:09:18.771Z,33.60
2022-09-07T11:12:05.783Z,34.10
2022-09-07T11:14:44.849Z,34.60
2022-09-07T11:17:43.727Z,34.90
2022-09-07T11:20:15.397Z,35.00
2022-09-07T11:22:52.307Z,35.40
2022-09-07T11:25:29.684Z,35.00
2022-09-07T11:28:05.044Z,35.50
2022-09-07T11:30:38.032Z,35.40
2022-09-07T11:33:29.145Z,35.90
2022-09-07T11:36:23.553Z,35.20
2022-09-07T11:39:05.350Z,35.00
2022-09-07T11:41:49.026Z,35.50
2022-09-07T11:44:31.964Z,36.20
2022-09-07T11:47:10.715Z,35.90
2022-09-07T11:49:39.097Z,35.80
2022-09-07T11:52:10.042Z,36.00
2022-09-07T11:54:42.097Z,36.10
2022-09-07T11:57:16.086Z,36.30
2022-09-07T11:59:43.574Z,36.50
2022-09-07T12:02:17.080Z,36.40
2022-09-07T12:05:23.309Z,36.30
2022-09-07T12:08:18.423Z,35.90
2022-09-07T12:11:00.346Z,36.50
2022-09-07T12:13:36.926Z,36.40
2022-09-07T12:16:19.562Z,36.90
2022-09-07T12:19:16.248Z,37.20
2022-09-07T12:21:51.345Z,37.30
2022-09-07T12:24:41.576Z,37.60
2022-09-07T12:27:24.502Z,37.10
2022-09-07T12:30:11.854Z,36.30
2022-09-07T12:32:54.058Z,35.90
2022-09-07T12:35:37.468Z,36.00
2022-09-07T12:38:16.712Z,36.00
2022-09-07T12:41:21.180Z,36.50
2022-09-07T12:44:05.629Z,36.30
2022-09-07T12:46:35.505Z,36.60
2022-09-07T12:49:22.636Z,36.10
2022-09-07T12:52:16.014Z,36.10
2022-09-07T12:55:26.688Z,36.40
2022-09-07T12:58:21.313Z,36.50
2022-09-07T13:01:05.550Z,36.00
2022-09-07T13:03:57.141Z,36.50
2022-09-07T13:07:02.010Z,37.20
2022-09-07T13:09:59.802Z,37.10
2022-09-07T13:12:57.867Z,37.00
2022-09-07T13:15:36.260Z,36.10
2022-09-07T13:18:03.900Z,36.30
2022-09-07T13:20:36.141Z,36.40
2022-09-07T13:23:25.655Z,36.90
2022-09-07T13:25:55.193Z,37.20
2022-09-07T13:28:25.569Z,37.20
2022-09-07T13:31:22.061Z,36.50
2022-09-07T13:33:53.712Z,37.00
2022-09-07T13:36:44.442Z,37.20
2022-09-07T13:39:20.234Z,37.00
2022-09-07T13:41:55.036Z,36.80
2022-09-07T13:44:26.836Z,35.70
2022-09-07T13:46:57.793Z,34.80
2022-09-07T13:49:24.920Z,34.20
2022-09-07T13:52:15.211Z,33.40
2022-09-07T13:54:54.150Z,32.80
2022-09-07T13:58:04.957Z,32.30
2022-09-07T14:00:32.844Z,31.90
2022-09-07T14:03:06.640Z,31.50
2022-09-07T14:05:34.686Z,31.20
2022-09-07T14:08:02.153Z,30.90
2022-09-07T14:10:29.769Z,30.80
2022-09-07T14:13:11.529Z,30.50
2022-09-07T14:15:46.129Z,30.30
2022-09-07T14:18:30.987Z,30.10
2022-09-07T14:20:58.952Z,30.00
2022-09-07T14:23:35.321Z,29.90
2022-09-07T14:26:19.635Z,29.90
2022-09-07T14:28:54.355Z,29.80
2022-09-07T14:31:24.338Z,29.80
2022-09-07T14:33:59.898Z,29.80
2022-09-07T14:36:46.068Z,29.70
2022-09-07T14:39:19.731Z,29.60
2022-09-07T14:41:47.500Z,29.60
2022-09-07T14:44:35.676Z,29.70
2022-09-07T14:47:29.265Z,29.70
2022-09-07T14:50:00.143Z,29.80
2022-09-07T14:52:40.687Z,29.80
2022-09-07T14:55:43.327Z,29.80
2022-09-07T14:58:14.334Z,29.80
2022-09-07T15:00:47.515Z,29.80
2022-09-07T15:04:01.003Z,29.80
2022-09-07T15:09:28.878Z,29.70
2022-09-07T15:12:38.332Z,29.80
2022-09-07T15:15:27.204Z,29.80
2022-09-07T15:17:59.038Z,29.80
2022-09-07T15:20:37.597Z,29.80
2022-09-07T15:23:08.544Z,29.90
2022-09-07T15:25:36.531Z,30.00
2022-09-07T15:28:06.569Z,30.00
2022-09-07T15:30:34.911Z,30.10
2022-09-07T15:33:02.289Z,30.40
2022-09-07T15:35:29.683Z,30.40
2022-09-07T15:38:05.527Z,30.50
2022-09-07T15:40:58.081Z,30.60
2022-09-07T15:43:29.179Z,30.60
2022-09-07T15:45:56.590Z,30.70
2022-09-07T15:48:27.647Z,30.60
2022-09-07T15:52:04.911Z,30.50
2022-09-07T15:54:18.467Z,30.40
2022-09-07T15:59:35.945Z,30.30
2022-09-07T16:02:03.810Z,30.30
2022-09-07T16:04:31.688Z,30.20
2022-09-07T16:07:01.676Z,30.30
2022-09-07T16:09:29.154Z,30.30
2022-09-07T16:13:00.163Z,30.30
2022-09-07T16:14:44.980Z,30.30
2022-09-07T16:17:34.752Z,30.30
2022-09-07T16:20:02.105Z,30.30
2022-09-07T16:25:17.418Z,30.40
2022-09-07T16:27:44.680Z,30.40
2022-09-07T16:30:13.413Z,30.40
2022-09-07T16:32:44.347Z,30.20
2022-09-07T16:35:12.058Z,30.10
2022-09-07T16:38:43.574Z,30.00
2022-09-07T16:40:26.549Z,29.80
2022-09-07T16:42:53.770Z,29.80
2022-09-07T16:48:09.694Z,29.50
2022-09-07T16:50:37.326Z,29.40
2022-09-07T16:53:04.744Z,29.40
2022-09-07T16:55:31.922Z,29.30
2022-09-07T17:00:48.784Z,29.10
2022-09-07T17:03:16.014Z,29.10
2022-09-07T17:05:43.259Z,29.10
2022-09-07T17:08:11.391Z,29.10
2022-09-07T17:10:47.141Z,29.10
2022-09-07T17:13:14.401Z,29.00
2022-09-07T17:15:41.738Z,29.00
2022-09-07T17:18:09.491Z,28.90
2022-09-07T17:20:36.682Z,28.80
2022-09-07T17:23:04.036Z,28.80
2022-09-07T17:25:33.262Z,28.80
2022-09-07T17:28:00.781Z,28.70
2022-09-07T17:30:27.927Z,28.70
2022-09-07T17:32:55.318Z,28.60
2022-09-07T17:35:23.488Z,28.60
2022-09-07T17:37:52.150Z,28.50
2022-09-07T17:40:19.579Z,28.40
2022-09-07T17:45:34.191Z,28.40
2022-09-07T17:48:01.662Z,28.40
2022-09-07T17:50:28.985Z,28.30
2022-09-07T17:52:56.226Z,28.20
2022-09-07T17:55:23.528Z,28.20
2022-09-07T17:57:50.708Z,28.20
2022-09-07T18:00:18.064Z,28.20
2022-09-07T18:02:45.231Z,28.20
2022-09-07T18:05:12.656Z,28.10
2022-09-07T18:07:39.894Z,28.20
2022-09-07T18:10:07.548Z,28.10
2022-09-07T18:12:34.777Z,28.10
2022-09-07T18:15:02.113Z,28.10
2022-09-07T18:17:29.339Z,28.10
2022-09-07T18:19:56.721Z,28.10
2022-09-07T18:22:23.976Z,28.10
2022-09-07T18:24:52.941Z,28.10
2022-09-07T18:27:21.535Z,28.00
2022-09-07T18:29:48.882Z,28.00
2022-09-07T18:32:16.236Z,28.00
2022-09-07T18:34:48.282Z,28.10
2022-09-07T18:37:19.226Z,28.00
2022-09-07T18:39:47.742Z,28.00
2022-09-07T18:42:15.924Z,28.00
2022-09-07T18:47:31.560Z,28.00
2022-09-07T18:49:59.228Z,28.00
2022-09-07T18:55:16.577Z,28.00
2022-09-07T18:57:43.786Z,28.00
2022-09-07T19:00:12.769Z,28.00
2022-09-07T19:02:40.179Z,28.00
2022-09-07T19:08:00.924Z,28.10
2022-09-07T19:10:28.269Z,28.10
2022-09-07T19:12:56.428Z,28.00
2022-09-07T19:15:25.147Z,28.00
2022-09-07T19:17:52.763Z,28.10
2022-09-07T19:20:20.188Z,28.10
2022-09-07T19:22:49.731Z,28.10
2022-09-07T19:25:19.492Z,28.00
2022-09-07T19:27:47.928Z,28.00
2022-09-07T19:30:18.576Z,28.00
2022-09-07T19:32:46.168Z,27.90
2022-09-07T19:35:19.072Z,27.90
2022-09-07T19:37:48.720Z,27.90
2022-09-07T19:40:20.233Z,27.80
2022-09-07T19:42:48.364Z,27.80
2022-09-07T19:45:18.188Z,27.80
2022-09-07T19:47:45.924Z,27.70
2022-09-07T19:50:15.189Z,27.70
2022-09-07T19:52:44.874Z,27.70
2022-09-07T19:55:14.547Z,27.70
2022-09-07T19:57:48.775Z,27.70
2022-09-07T20:00:16.619Z,27.70
2022-09-07T20:02:51.051Z,27.70
2022-09-07T20:05:20.660Z,27.70
2022-09-07T20:07:48.241Z,27.70
2022-09-07T20:10:20.132Z,27.70
2022-09-07T20:12:49.923Z,27.70
2022-09-07T20:15:18.694Z,27.60
2022-09-07T20:17:48.011Z,27.60
2022-09-07T20:20:16.014Z,27.60
2022-09-07T20:22:43.471Z,27.50
2022-09-07T20:25:13.485Z,27.50
2022-09-07T20:27:48.151Z,27.50
2022-09-07T20:30:19.025Z,27.40
2022-09-07T20:32:46.900Z,27.40
2022-09-07T20:35:14.896Z,27.40
2022-09-07T20:37:43.885Z,27.40
2022-09-07T20:40:13.132Z,27.40
2022-09-07T20:42:44.081Z,27.40
2022-09-07T20:45:14.551Z,27.30
2022-09-07T20:47:44.799Z,27.30
2022-09-07T20:50:14.489Z,27.30
2022-09-07T20:52:45.098Z,27.30
2022-09-07T20:55:12.656Z,27.30
2022-09-07T20:57:41.682Z,27.20
2022-09-07T21:00:09.822Z,27.20
2022-09-07T21:02:37.958Z,27.20
2022-09-07T21:05:05.920Z,27.20
2022-09-07T21:07:34.291Z,27.20
2022-09-07T21:10:06.922Z,27.20
2022-09-07T21:12:37.349Z,27.30
2022-09-07T21:15:05.143Z,27.30
2022-09-07T21:17:32.534Z,27.30
2022-09-07T21:20:01.650Z,27.40
2022-09-07T21:22:29.190Z,27.40
2022-09-07T21:24:57.094Z,27.40
2022-09-07T21:27:24.744Z,27.40
2022-09-07T21:29:52.119Z,27.40
2022-09-07T21:32:19.471Z,27.40
2022-09-07T21:34:47.671Z,27.40
2022-09-07T21:37:14.940Z,27.40
2022-09-07T21:39:42.364Z,27.40
2022-09-07T21:42:09.537Z,27.40
2022-09-07T21:44:37.376Z,27.40
2022-09-07T21:47:05.105Z,27.40
2022-09-07T21:49:32.394Z,27.40
2022-09-07T21:52:00.644Z,27.40
2022-09-07T21:54:29.196Z,27.30
2022-09-07T21:56:57.614Z,27.30
2022-09-07T21:59:27.250Z,27.20
2022-09-07T22:01:54.686Z,27.30
2022-09-07T22:04:21.970Z,27.20
2022-09-07T22:06:49.227Z,27.20
2022-09-07T22:09:17.281Z,27.20
2022-09-07T22:11:46.128Z,27.10
2022-09-07T22:14:15.887Z,27.10
2022-09-07T22:16:43.290Z,27.10
2022-09-07T22:19:10.671Z,27.10
2022-09-07T22:21:38.089Z,27.10
2022-09-07T22:24:06.659Z,27.10
2022-09-07T22:26:39.936Z,27.10
2022-09-07T22:29:08.835Z,27.10
2022-09-07T22:31:37.581Z,27.10
2022-09-07T22:34:08.249Z,27.00
2022-09-07T22:36:38.635Z,27.00
2022-09-07T22:39:09.045Z,26.90
2022-09-07T22:41:38.614Z,26.90
2022-09-07T22:44:06.953Z,26.90
2022-09-07T22:46:38.773Z,26.90
2022-09-07T22:49:07.047Z,26.90
2022-09-07T22:51:34.675Z,26.90
2022-09-07T22:54:02.740Z,26.80
2022-09-07T22:56:32.306Z,26.80
2022-09-07T22:59:05.118Z,26.80
2022-09-07T23:01:32.720Z,26.80
2022-09-07T23:04:00.804Z,26.80
2022-09-07T23:06:31.347Z,26.70
2022-09-07T23:09:01.038Z,26.70
2022-09-07T23:11:28.684Z,26.70
2022-09-07T23:13:58.739Z,26.70
2022-09-07T23:16:27.809Z,26.70
2022-09-07T23:18:56.162Z,26.70
2022-09-07T23:21:23.467Z,26.70
2022-09-07T23:23:52.488Z,26.70
2022-09-07T23:26:21.467Z,26.60
2022-09-07T23:28:53.773Z,26.60
2022-09-07T23:31:22.072Z,26.60
2022-09-07T23:33:49.816Z,26.60
2022-09-07T23:36:17.832Z,26.60
2022-09-07T23:38:46.088Z,26.50
2022-09-07T23:41:17.493Z,26.50
2022-09-07T23:43:45.357Z,26.50
2022-09-07T23:46:13.721Z,26.50
2022-09-07T23:48:43.253Z,26.50
2022-09-07T23:51:10.655Z,26.50
2022-09-07T23:53:38.124Z,26.40
2022-09-07T23:56:05.597Z,26.40
2022-09-07T23:58:32.774Z,26.40
